RYR43NB EDLV-LERS
Flight info
| Callsign | RYR43NB |
|---|---|
| Flight time | N/A |
| Altitude | 36000 |
| Route | VEBAK2R VEBAK Z283 LNO M170 KUDIN DCT TRO B373 MOU DCT ADATU DCT SOVET DCT RIBOU B31 PUMAL N31 BERGA |
| Aircraft | B738/M-SDE2E3FGHIRWXY/LB1 |
Departure
| Time | 2026-04-22 09:07 |
|---|---|
| Airport | Weeze (Niederrhein) Airport (EDLV) |
Arrival
| Time | N/A |
|---|---|
| Airport | Reus Airport (LERS) |
| Time | Latitude | Longitude | Altitude | Speed | Heading |
|---|---|---|---|---|---|
| 2026-04-22 09:02 | 51.60043 | 6.14859 | 112 ft | 0 kts | 272° |
| 2026-04-22 09:02 | 51.60044 | 6.14849 | 111 ft | 1 kts | 272° |
| 2026-04-22 09:03 | 51.60044 | 6.14823 | 111 ft | 3 kts | 271° |
| 2026-04-22 09:03 | 51.60045 | 6.14718 | 109 ft | 14 kts | 271° |
| 2026-04-22 09:03 | 51.60045 | 6.14539 | 107 ft | 15 kts | 269° |
| 2026-04-22 09:03 | 51.60047 | 6.14384 | 105 ft | 13 kts | 274° |
| 2026-04-22 09:04 | 51.60054 | 6.14243 | 103 ft | 12 kts | 273° |
| 2026-04-22 09:04 | 51.60057 | 6.14099 | 100 ft | 13 kts | 271° |
| 2026-04-22 09:04 | 51.60060 | 6.13943 | 98 ft | 14 kts | 271° |
| 2026-04-22 09:04 | 51.60063 | 6.13782 | 98 ft | 17 kts | 271° |
| 2026-04-22 09:05 | 51.60069 | 6.13529 | 98 ft | 27 kts | 271° |
| 2026-04-22 09:05 | 51.60077 | 6.13173 | 98 ft | 34 kts | 274° |
| 2026-04-22 09:05 | 51.60084 | 6.12801 | 100 ft | 32 kts | 271° |
| 2026-04-22 09:05 | 51.60093 | 6.12511 | 101 ft | 19 kts | 284° |
| 2026-04-22 09:06 | 51.60193 | 6.12462 | 101 ft | 15 kts | 2° |
| 2026-04-22 09:06 | 51.60282 | 6.12510 | 101 ft | 17 kts | 72° |
| 2026-04-22 09:06 | 51.60277 | 6.12981 | 98 ft | 76 kts | 92° |
| 2026-04-22 09:06 | 51.60248 | 6.14168 | 101 ft | 136 kts | 91° |
| 2026-04-22 09:07 | 51.60227 | 6.15921 | 241 ft | 171 kts | 90° |
| 2026-04-22 09:07 | 51.60222 | 6.17831 | 994 ft | 170 kts | 89° |
| 2026-04-22 09:07 | 51.60219 | 6.19729 | 1351 ft | 181 kts | 91° |
| 2026-04-22 09:07 | 51.60119 | 6.21844 | 1610 ft | 197 kts | 94° |
| 2026-04-22 09:08 | 51.60012 | 6.24121 | 1912 ft | 212 kts | 91° |
| 2026-04-22 09:08 | 51.59950 | 6.26541 | 2266 ft | 225 kts | 91° |
| 2026-04-22 09:08 | 51.59899 | 6.29129 | 2619 ft | 238 kts | 90° |
| 2026-04-22 09:08 | 51.59840 | 6.31785 | 3151 ft | 241 kts | 91° |
| 2026-04-22 09:09 | 51.59776 | 6.34467 | 3832 ft | 243 kts | 91° |
| 2026-04-22 09:09 | 51.59711 | 6.37188 | 4501 ft | 246 kts | 91° |
| 2026-04-22 09:09 | 51.59506 | 6.39903 | 5214 ft | 248 kts | 106° |
| 2026-04-22 09:09 | 51.58568 | 6.42215 | 5862 ft | 257 kts | 134° |
| 2026-04-22 09:10 | 51.57011 | 6.43697 | 6533 ft | 266 kts | 155° |
| 2026-04-22 09:10 | 51.55184 | 6.44321 | 7197 ft | 276 kts | 173° |
| 2026-04-22 09:10 | 51.53303 | 6.43719 | 7835 ft | 289 kts | 203° |
| 2026-04-22 09:10 | 51.51731 | 6.41656 | 8487 ft | 299 kts | 226° |
| 2026-04-22 09:11 | 51.50481 | 6.38966 | 9136 ft | 304 kts | 231° |
| 2026-04-22 09:11 | 51.49009 | 6.36592 | 9800 ft | 302 kts | 209° |
| 2026-04-22 09:11 | 51.47150 | 6.35126 | 10417 ft | 303 kts | 196° |
| 2026-04-22 09:11 | 51.45096 | 6.34025 | 10780 ft | 317 kts | 193° |
| 2026-04-22 09:12 | 51.42940 | 6.32954 | 11139 ft | 333 kts | 194° |
| 2026-04-22 09:12 | 51.40714 | 6.31780 | 11505 ft | 348 kts | 195° |
| 2026-04-22 09:12 | 51.38423 | 6.30485 | 12174 ft | 353 kts | 196° |
| 2026-04-22 09:12 | 51.36108 | 6.29131 | 12867 ft | 357 kts | 197° |
| 2026-04-22 09:13 | 51.33757 | 6.27738 | 13537 ft | 362 kts | 197° |
| 2026-04-22 09:13 | 51.31414 | 6.26349 | 14254 ft | 365 kts | 197° |
| 2026-04-22 09:13 | 51.29025 | 6.24936 | 14993 ft | 369 kts | 197° |
| 2026-04-22 09:13 | 51.26625 | 6.23522 | 15709 ft | 373 kts | 197° |
| 2026-04-22 09:14 | 51.24166 | 6.22079 | 16390 ft | 377 kts | 197° |
| 2026-04-22 09:14 | 51.21711 | 6.20642 | 17072 ft | 381 kts | 197° |
| 2026-04-22 09:14 | 51.19220 | 6.19186 | 17700 ft | 386 kts | 197° |
| 2026-04-22 09:14 | 51.16704 | 6.17718 | 18327 ft | 390 kts | 196° |
| 2026-04-22 09:15 | 51.14153 | 6.16231 | 18972 ft | 394 kts | 196° |
| 2026-04-22 09:15 | 51.11575 | 6.14729 | 19619 ft | 398 kts | 196° |
| 2026-04-22 09:15 | 51.08966 | 6.13212 | 20227 ft | 402 kts | 197° |
| 2026-04-22 09:15 | 51.06326 | 6.11679 | 20838 ft | 406 kts | 197° |
| 2026-04-22 09:16 | 51.03677 | 6.10100 | 21404 ft | 411 kts | 198° |
| 2026-04-22 09:16 | 51.01067 | 6.08243 | 21991 ft | 416 kts | 204° |
| 2026-04-22 09:16 | 50.98509 | 6.06030 | 22578 ft | 420 kts | 207° |
| 2026-04-22 09:16 | 50.96005 | 6.03635 | 23143 ft | 424 kts | 209° |
| 2026-04-22 09:17 | 50.93503 | 6.01158 | 23671 ft | 427 kts | 208° |
| 2026-04-22 09:17 | 50.90943 | 5.98757 | 24214 ft | 430 kts | 207° |
| 2026-04-22 09:17 | 50.88316 | 5.96445 | 24674 ft | 434 kts | 206° |
| 2026-04-22 09:17 | 50.85671 | 5.94193 | 25194 ft | 436 kts | 206° |
| 2026-04-22 09:18 | 50.82966 | 5.91919 | 25680 ft | 439 kts | 206° |
| 2026-04-22 09:18 | 50.80253 | 5.89634 | 26148 ft | 442 kts | 206° |
| 2026-04-22 09:18 | 50.77569 | 5.87351 | 26615 ft | 444 kts | 207° |
| 2026-04-22 09:18 | 50.74824 | 5.84997 | 27089 ft | 446 kts | 207° |
| 2026-04-22 09:19 | 50.72125 | 5.82676 | 27524 ft | 449 kts | 207° |
| 2026-04-22 09:19 | 50.69356 | 5.80293 | 27965 ft | 451 kts | 208° |
| 2026-04-22 09:19 | 50.66620 | 5.77940 | 28387 ft | 454 kts | 208° |
| 2026-04-22 09:19 | 50.63819 | 5.75534 | 28791 ft | 457 kts | 208° |
| 2026-04-22 09:20 | 50.61028 | 5.73164 | 29172 ft | 460 kts | 207° |
| 2026-04-22 09:20 | 50.58159 | 5.70973 | 29568 ft | 462 kts | 203° |
| 2026-04-22 09:20 | 50.55193 | 5.69111 | 29967 ft | 464 kts | 200° |
| 2026-04-22 09:20 | 50.52121 | 5.67433 | 30362 ft | 466 kts | 198° |
| 2026-04-22 09:21 | 50.49076 | 5.65893 | 30952 ft | 462 kts | 198° |
| 2026-04-22 09:21 | 50.46048 | 5.64408 | 31433 ft | 460 kts | 198° |
| 2026-04-22 09:21 | 50.42978 | 5.62914 | 31878 ft | 459 kts | 198° |
| 2026-04-22 09:21 | 50.39958 | 5.61438 | 32315 ft | 458 kts | 198° |
| 2026-04-22 09:22 | 50.36933 | 5.59949 | 32740 ft | 458 kts | 199° |
| 2026-04-22 09:22 | 50.33880 | 5.58434 | 33158 ft | 457 kts | 199° |
| 2026-04-22 09:22 | 50.30882 | 5.56939 | 33530 ft | 456 kts | 199° |
| 2026-04-22 09:22 | 50.27849 | 5.55421 | 33919 ft | 456 kts | 199° |
| 2026-04-22 09:23 | 50.24868 | 5.53926 | 34273 ft | 455 kts | 199° |
| 2026-04-22 09:23 | 50.21845 | 5.52409 | 34610 ft | 455 kts | 200° |
| 2026-04-22 09:23 | 50.18873 | 5.50919 | 34953 ft | 453 kts | 200° |
| 2026-04-22 09:23 | 50.15854 | 5.49406 | 35245 ft | 452 kts | 200° |
| 2026-04-22 09:24 | 50.12883 | 5.47918 | 35471 ft | 452 kts | 200° |
| 2026-04-22 09:24 | 50.09923 | 5.46436 | 35702 ft | 452 kts | 200° |
| 2026-04-22 09:24 | 50.06905 | 5.44928 | 35917 ft | 452 kts | 200° |
| 2026-04-22 09:24 | 50.03954 | 5.43456 | 36172 ft | 451 kts | 200° |
| 2026-04-22 09:25 | 50.00956 | 5.41961 | 36247 ft | 454 kts | 200° |
| 2026-04-22 09:25 | 49.94982 | 5.38991 | 36250 ft | 451 kts | 200° |
| 2026-04-22 09:26 | 49.89020 | 5.36034 | 36255 ft | 452 kts | 201° |
| 2026-04-22 09:26 | 49.83016 | 5.33060 | 36248 ft | 453 kts | 200° |
| 2026-04-22 09:27 | 49.77024 | 5.30099 | 36255 ft | 453 kts | 200° |
| 2026-04-22 09:27 | 49.71064 | 5.27057 | 36249 ft | 453 kts | 204° |
| 2026-04-22 09:28 | 49.65432 | 5.22983 | 36241 ft | 448 kts | 213° |
| 2026-04-22 09:28 | 49.60090 | 5.18086 | 36239 ft | 446 kts | 216° |
| 2026-04-22 09:29 | 49.54845 | 5.13070 | 36255 ft | 445 kts | 216° |
| 2026-04-22 09:29 | 49.49553 | 5.08067 | 36231 ft | 446 kts | 216° |
| 2026-04-22 09:30 | 49.44267 | 5.03124 | 36232 ft | 447 kts | 216° |
| 2026-04-22 09:30 | 49.39006 | 4.98256 | 36228 ft | 445 kts | 216° |
| 2026-04-22 09:31 | 49.33701 | 4.93387 | 36217 ft | 446 kts | 216° |
| 2026-04-22 09:31 | 49.28397 | 4.88515 | 36217 ft | 445 kts | 217° |
| 2026-04-22 09:32 | 49.23098 | 4.83665 | 36222 ft | 444 kts | 217° |
| 2026-04-22 09:32 | 49.17831 | 4.78871 | 36214 ft | 443 kts | 217° |
| 2026-04-22 09:33 | 49.12526 | 4.74060 | 36208 ft | 442 kts | 217° |
| 2026-04-22 09:33 | 49.07270 | 4.69302 | 36228 ft | 443 kts | 218° |
| 2026-04-22 09:34 | 49.01987 | 4.64520 | 36213 ft | 443 kts | 218° |
| 2026-04-22 09:34 | 48.96687 | 4.59743 | 36215 ft | 442 kts | 218° |
| 2026-04-22 09:35 | 48.88865 | 4.52717 | 36217 ft | 436 kts | 219° |
| 2026-04-22 09:35 | 48.83625 | 4.47997 | 36208 ft | 439 kts | 219° |
| 2026-04-22 09:36 | 48.78386 | 4.43297 | 36197 ft | 441 kts | 218° |
| 2026-04-22 09:36 | 48.73139 | 4.38630 | 36214 ft | 439 kts | 218° |
| 2026-04-22 09:37 | 48.67871 | 4.33961 | 36190 ft | 436 kts | 218° |
| 2026-04-22 09:37 | 48.62639 | 4.29312 | 36188 ft | 439 kts | 218° |
| 2026-04-22 09:38 | 48.57419 | 4.24698 | 36194 ft | 437 kts | 218° |
| 2026-04-22 09:38 | 48.52200 | 4.20092 | 36198 ft | 434 kts | 218° |
| 2026-04-22 09:39 | 48.46960 | 4.15472 | 36159 ft | 435 kts | 218° |
| 2026-04-22 09:39 | 48.41802 | 4.10937 | 36181 ft | 431 kts | 218° |
| 2026-04-22 09:40 | 48.36597 | 4.06361 | 36169 ft | 435 kts | 218° |
| 2026-04-22 09:40 | 48.31392 | 4.01799 | 36167 ft | 434 kts | 218° |
| 2026-04-22 09:41 | 48.26097 | 3.97499 | 36166 ft | 438 kts | 211° |
| 2026-04-22 09:41 | 48.20152 | 3.94910 | 36172 ft | 452 kts | 198° |
| 2026-04-22 09:42 | 48.13903 | 3.93504 | 36149 ft | 457 kts | 194° |
| 2026-04-22 09:42 | 48.07653 | 3.92325 | 36132 ft | 455 kts | 194° |
| 2026-04-22 09:43 | 48.01358 | 3.91072 | 36135 ft | 454 kts | 194° |
| 2026-04-22 09:43 | 47.95160 | 3.89765 | 36135 ft | 452 kts | 195° |
| 2026-04-22 09:44 | 47.88952 | 3.88431 | 36124 ft | 452 kts | 195° |
| 2026-04-22 09:44 | 47.82746 | 3.87101 | 36120 ft | 450 kts | 195° |
| 2026-04-22 09:45 | 47.76517 | 3.85752 | 36113 ft | 452 kts | 195° |
| 2026-04-22 09:45 | 47.70335 | 3.84417 | 36109 ft | 449 kts | 195° |
| 2026-04-22 09:46 | 47.64184 | 3.83088 | 36102 ft | 448 kts | 195° |
| 2026-04-22 09:46 | 47.58047 | 3.81773 | 36106 ft | 450 kts | 195° |
| 2026-04-22 09:47 | 47.51906 | 3.80473 | 36087 ft | 444 kts | 195° |
| 2026-04-22 09:47 | 47.45755 | 3.79138 | 36095 ft | 449 kts | 195° |
| 2026-04-22 09:48 | 47.39619 | 3.77808 | 36092 ft | 444 kts | 195° |
| 2026-04-22 09:48 | 47.33528 | 3.76493 | 36081 ft | 446 kts | 195° |
| 2026-04-22 09:49 | 47.27432 | 3.75180 | 36077 ft | 446 kts | 195° |
| 2026-04-22 09:49 | 47.21320 | 3.73869 | 36068 ft | 443 kts | 195° |
| 2026-04-22 09:50 | 47.15259 | 3.72573 | 36072 ft | 441 kts | 195° |
| 2026-04-22 09:50 | 47.09174 | 3.71279 | 36059 ft | 442 kts | 195° |
| 2026-04-22 09:51 | 47.03088 | 3.69991 | 36055 ft | 443 kts | 195° |
| 2026-04-22 09:51 | 46.97022 | 3.68711 | 36050 ft | 443 kts | 194° |
| 2026-04-22 09:52 | 46.90960 | 3.67446 | 36054 ft | 443 kts | 195° |
| 2026-04-22 09:52 | 46.84891 | 3.66181 | 36047 ft | 439 kts | 195° |
| 2026-04-22 09:53 | 46.78812 | 3.64897 | 36047 ft | 443 kts | 195° |
| 2026-04-22 09:53 | 46.72776 | 3.63479 | 36049 ft | 439 kts | 199° |
| 2026-04-22 09:54 | 46.67059 | 3.60797 | 36046 ft | 428 kts | 210° |
| 2026-04-22 09:54 | 46.61701 | 3.57128 | 36050 ft | 426 kts | 213° |
| 2026-04-22 09:55 | 46.56397 | 3.53288 | 36045 ft | 426 kts | 213° |
| 2026-04-22 09:55 | 46.51123 | 3.49501 | 36046 ft | 424 kts | 213° |
| 2026-04-22 09:56 | 46.45828 | 3.45748 | 36044 ft | 428 kts | 212° |
| 2026-04-22 09:56 | 46.40457 | 3.41983 | 36041 ft | 427 kts | 212° |
| 2026-04-22 09:57 | 46.35154 | 3.38290 | 36047 ft | 426 kts | 213° |
| 2026-04-22 09:57 | 46.29803 | 3.34578 | 36046 ft | 428 kts | 212° |
| 2026-04-22 09:58 | 46.24480 | 3.30886 | 36041 ft | 424 kts | 212° |
| 2026-04-22 09:58 | 46.19156 | 3.27198 | 36037 ft | 427 kts | 212° |
| 2026-04-22 09:59 | 46.13789 | 3.23489 | 36033 ft | 428 kts | 211° |
| 2026-04-22 09:59 | 46.08440 | 3.19814 | 36032 ft | 427 kts | 211° |
| 2026-04-22 10:00 | 46.03295 | 3.16282 | 36027 ft | 430 kts | 211° |
| 2026-04-22 10:00 | 45.97929 | 3.12594 | 36013 ft | 427 kts | 211° |
| 2026-04-22 10:01 | 45.92542 | 3.08908 | 36019 ft | 429 kts | 211° |
| 2026-04-22 10:01 | 45.87176 | 3.05244 | 36015 ft | 427 kts | 211° |
| 2026-04-22 10:02 | 45.81828 | 3.01606 | 36017 ft | 430 kts | 211° |
| 2026-04-22 10:02 | 45.76427 | 2.97946 | 36016 ft | 428 kts | 211° |
| 2026-04-22 10:03 | 45.71047 | 2.94281 | 36013 ft | 431 kts | 211° |
| 2026-04-22 10:03 | 45.65671 | 2.90625 | 36010 ft | 429 kts | 211° |
| 2026-04-22 10:04 | 45.60292 | 2.86979 | 36002 ft | 429 kts | 211° |
| 2026-04-22 10:04 | 45.54872 | 2.83319 | 35998 ft | 430 kts | 211° |
| 2026-04-22 10:05 | 45.49536 | 2.79543 | 36003 ft | 428 kts | 214° |
| 2026-04-22 10:05 | 45.44329 | 2.75503 | 36007 ft | 430 kts | 215° |
| 2026-04-22 10:06 | 45.39116 | 2.71444 | 36005 ft | 429 kts | 214° |
| 2026-04-22 10:06 | 45.33845 | 2.67388 | 36002 ft | 430 kts | 214° |
| 2026-04-22 10:07 | 45.28612 | 2.63396 | 36002 ft | 430 kts | 214° |
| 2026-04-22 10:07 | 45.23308 | 2.59357 | 36000 ft | 431 kts | 214° |
| 2026-04-22 10:08 | 45.18052 | 2.55375 | 36004 ft | 429 kts | 213° |
| 2026-04-22 10:08 | 45.12777 | 2.51389 | 36003 ft | 431 kts | 214° |
| 2026-04-22 10:09 | 45.07491 | 2.47392 | 36003 ft | 433 kts | 213° |
| 2026-04-22 10:09 | 45.02198 | 2.43405 | 36001 ft | 431 kts | 213° |
| 2026-04-22 10:10 | 44.96937 | 2.39451 | 36003 ft | 430 kts | 213° |
| 2026-04-22 10:10 | 44.91665 | 2.35495 | 35996 ft | 430 kts | 213° |
| 2026-04-22 10:11 | 44.86374 | 2.31533 | 35987 ft | 429 kts | 212° |
| 2026-04-22 10:11 | 44.81090 | 2.27587 | 35990 ft | 432 kts | 212° |
| 2026-04-22 10:12 | 44.75811 | 2.23651 | 35984 ft | 430 kts | 212° |
| 2026-04-22 10:12 | 44.70611 | 2.19791 | 35981 ft | 431 kts | 212° |
| 2026-04-22 10:13 | 44.65315 | 2.15860 | 35976 ft | 431 kts | 212° |
| 2026-04-22 10:13 | 44.60052 | 2.11961 | 35976 ft | 431 kts | 212° |
| 2026-04-22 10:14 | 44.54727 | 2.08023 | 35972 ft | 432 kts | 212° |
| 2026-04-22 10:14 | 44.49450 | 2.04137 | 35962 ft | 432 kts | 212° |
| 2026-04-22 10:15 | 44.44103 | 2.00197 | 35965 ft | 432 kts | 212° |
| 2026-04-22 10:15 | 44.38808 | 1.96310 | 35962 ft | 433 kts | 211° |
| 2026-04-22 10:16 | 44.33503 | 1.92417 | 35961 ft | 432 kts | 212° |
| 2026-04-22 10:16 | 44.28183 | 1.88520 | 35969 ft | 432 kts | 212° |
| 2026-04-22 10:17 | 44.23040 | 1.84764 | 35960 ft | 431 kts | 212° |
| 2026-04-22 10:17 | 44.17678 | 1.80917 | 35968 ft | 433 kts | 209° |
| 2026-04-22 10:18 | 44.11897 | 1.78577 | 35958 ft | 443 kts | 187° |
| 2026-04-22 10:18 | 44.05687 | 1.78952 | 36093 ft | 451 kts | 177° |
| 2026-04-22 10:19 | 44.02586 | 1.79422 | 35968 ft | 447 kts | 176° |
| 2026-04-22 10:19 | 43.99532 | 1.79928 | 35959 ft | 444 kts | 176° |
| 2026-04-22 10:19 | 43.93371 | 1.80921 | 35967 ft | 445 kts | 176° |
| 2026-04-22 10:20 | 43.87244 | 1.81838 | 35967 ft | 447 kts | 176° |
| 2026-04-22 10:20 | 43.81088 | 1.82725 | 35956 ft | 443 kts | 177° |
| 2026-04-22 10:21 | 43.74952 | 1.83590 | 35954 ft | 447 kts | 177° |
| 2026-04-22 10:21 | 43.68786 | 1.84461 | 35948 ft | 444 kts | 177° |
| 2026-04-22 10:22 | 43.62675 | 1.85309 | 35942 ft | 446 kts | 177° |
| 2026-04-22 10:22 | 43.56530 | 1.86157 | 35945 ft | 444 kts | 177° |
| 2026-04-22 10:23 | 43.50384 | 1.87021 | 35941 ft | 443 kts | 177° |
| 2026-04-22 10:23 | 43.44284 | 1.87871 | 35936 ft | 444 kts | 177° |
| 2026-04-22 10:24 | 43.38121 | 1.88721 | 35940 ft | 445 kts | 177° |
| 2026-04-22 10:24 | 43.31988 | 1.89568 | 35945 ft | 444 kts | 177° |
| 2026-04-22 10:25 | 43.25884 | 1.90415 | 35945 ft | 443 kts | 177° |
| 2026-04-22 10:25 | 43.19736 | 1.91263 | 35946 ft | 444 kts | 177° |
| 2026-04-22 10:26 | 43.13621 | 1.92103 | 35952 ft | 443 kts | 177° |
| 2026-04-22 10:26 | 43.07468 | 1.92946 | 35954 ft | 442 kts | 177° |
| 2026-04-22 10:27 | 43.01371 | 1.93690 | 35958 ft | 443 kts | 178° |
| 2026-04-22 10:27 | 42.95246 | 1.94356 | 35974 ft | 443 kts | 178° |
| 2026-04-22 10:28 | 42.89103 | 1.95022 | 35994 ft | 443 kts | 178° |
| 2026-04-22 10:28 | 42.82955 | 1.95698 | 36024 ft | 445 kts | 178° |
| 2026-04-22 10:29 | 42.76812 | 1.96380 | 36066 ft | 446 kts | 179° |
| 2026-04-22 10:29 | 42.70633 | 1.97072 | 36098 ft | 446 kts | 179° |
| 2026-04-22 10:30 | 42.64463 | 1.97758 | 36111 ft | 448 kts | 178° |
| 2026-04-22 10:30 | 42.58293 | 1.98441 | 36110 ft | 445 kts | 179° |
| 2026-04-22 10:31 | 42.52136 | 1.99120 | 36103 ft | 446 kts | 179° |
| 2026-04-22 10:31 | 42.45943 | 1.99813 | 36093 ft | 447 kts | 178° |
| 2026-04-22 10:32 | 42.39735 | 2.00499 | 36074 ft | 446 kts | 179° |
| 2026-04-22 10:32 | 42.33583 | 2.01189 | 36058 ft | 447 kts | 178° |
| 2026-04-22 10:33 | 42.27422 | 2.01934 | 36044 ft | 447 kts | 178° |
| 2026-04-22 10:33 | 42.21205 | 2.02307 | 36026 ft | 443 kts | 188° |
| 2026-04-22 10:34 | 42.18211 | 2.01548 | 36029 ft | 435 kts | 202° |
| 2026-04-22 10:34 | 42.15473 | 1.99937 | 36026 ft | 427 kts | 214° |
| 2026-04-22 10:34 | 42.10793 | 1.95219 | 36023 ft | 421 kts | 226° |
| 2026-04-22 10:35 | 42.06526 | 1.89929 | 36025 ft | 418 kts | 228° |
| 2026-04-22 10:35 | 42.02304 | 1.84535 | 36020 ft | 419 kts | 229° |
| 2026-04-22 10:36 | 41.98066 | 1.79154 | 36015 ft | 419 kts | 228° |
| 2026-04-22 10:36 | 41.93653 | 1.74049 | 36017 ft | 423 kts | 222° |
| 2026-04-22 10:37 | 41.86433 | 1.67205 | 36017 ft | 426 kts | 219° |
| 2026-04-22 10:38 | 41.81585 | 1.62691 | 36015 ft | 425 kts | 220° |
| 2026-04-22 10:38 | 41.76775 | 1.58195 | 36014 ft | 426 kts | 219° |
| 2026-04-22 10:39 | 41.71456 | 1.54531 | 36017 ft | 436 kts | 202° |
| 2026-04-22 10:39 | 41.65536 | 1.52625 | 36016 ft | 440 kts | 194° |
| 2026-04-22 10:40 | 41.59687 | 1.50551 | 36011 ft | 432 kts | 212° |
| 2026-04-22 10:40 | 41.57234 | 1.48378 | 36018 ft | 428 kts | 226° |
| 2026-04-22 10:40 | 41.55213 | 1.45502 | 36014 ft | 421 kts | 237° |
| 2026-04-22 10:41 | 41.52258 | 1.38931 | 36013 ft | 413 kts | 249° |
| 2026-04-22 10:41 | 41.50252 | 1.31785 | 36019 ft | 410 kts | 257° |
| 2026-04-22 10:42 | 41.48698 | 1.24521 | 36019 ft | 409 kts | 258° |
| 2026-04-22 10:42 | 41.47154 | 1.17250 | 36013 ft | 408 kts | 257° |
| 2026-04-22 10:43 | 41.45564 | 1.10022 | 36007 ft | 408 kts | 257° |
| 2026-04-22 10:43 | 41.43943 | 1.02826 | 36003 ft | 409 kts | 256° |
| 2026-04-22 10:44 | 41.42296 | 0.95593 | 36005 ft | 410 kts | 257° |
| 2026-04-22 10:44 | 41.40165 | 0.88529 | 36007 ft | 416 kts | 243° |
| 2026-04-22 10:44 | 41.38430 | 0.85467 | 36007 ft | 422 kts | 231° |
| 2026-04-22 10:45 | 41.36225 | 0.82842 | 36005 ft | 428 kts | 221° |
| 2026-04-22 10:45 | 41.31031 | 0.78841 | 36017 ft | 435 kts | 206° |
| 2026-04-22 10:46 | 41.25348 | 0.76342 | 36012 ft | 425 kts | 200° |
| 2026-04-22 10:46 | 41.19678 | 0.74608 | 35154 ft | 421 kts | 194° |
| 2026-04-22 10:46 | 41.16787 | 0.73969 | 34201 ft | 429 kts | 193° |
| 2026-04-22 10:47 | 41.13821 | 0.73336 | 33555 ft | 429 kts | 193° |
| 2026-04-22 10:47 | 41.10857 | 0.72926 | 33131 ft | 427 kts | 185° |
| 2026-04-22 10:47 | 41.07943 | 0.73127 | 33094 ft | 417 kts | 173° |
| 2026-04-22 10:47 | 41.05152 | 0.74045 | 32832 ft | 412 kts | 165° |
| 2026-04-22 10:48 | 41.02480 | 0.75409 | 32314 ft | 413 kts | 157° |
| 2026-04-22 10:48 | 40.99946 | 0.77194 | 31785 ft | 414 kts | 150° |
| 2026-04-22 10:48 | 40.97615 | 0.79345 | 31275 ft | 414 kts | 143° |
| 2026-04-22 10:48 | 40.95452 | 0.81900 | 30741 ft | 414 kts | 135° |
| 2026-04-22 10:49 | 40.93562 | 0.84742 | 30222 ft | 414 kts | 128° |
| 2026-04-22 10:49 | 40.91951 | 0.87864 | 29671 ft | 413 kts | 120° |
| 2026-04-22 10:49 | 40.90746 | 0.91258 | 29133 ft | 411 kts | 109° |
| 2026-04-22 10:49 | 40.90024 | 0.94895 | 28585 ft | 409 kts | 98° |
| 2026-04-22 10:50 | 40.89822 | 0.98611 | 28041 ft | 405 kts | 87° |
| 2026-04-22 10:50 | 40.90140 | 1.02262 | 27504 ft | 402 kts | 76° |
| 2026-04-22 10:50 | 40.90966 | 1.05760 | 26963 ft | 397 kts | 64° |
| 2026-04-22 10:50 | 40.92245 | 1.08911 | 26439 ft | 392 kts | 53° |
| 2026-04-22 10:51 | 40.93945 | 1.11664 | 25914 ft | 386 kts | 41° |
| 2026-04-22 10:51 | 40.96017 | 1.13924 | 25380 ft | 380 kts | 30° |
| 2026-04-22 10:51 | 40.98313 | 1.15548 | 24856 ft | 374 kts | 18° |
| 2026-04-22 10:51 | 41.00764 | 1.16518 | 24320 ft | 367 kts | 6° |
| 2026-04-22 10:52 | 41.03281 | 1.16809 | 23788 ft | 361 kts | 354° |
| 2026-04-22 10:52 | 41.05726 | 1.16414 | 23264 ft | 354 kts | 342° |
| 2026-04-22 10:52 | 41.08033 | 1.15353 | 22745 ft | 347 kts | 330° |
| 2026-04-22 10:52 | 41.10062 | 1.13698 | 22233 ft | 341 kts | 318° |
| 2026-04-22 10:53 | 41.11747 | 1.11533 | 21722 ft | 336 kts | 307° |
| 2026-04-22 10:53 | 41.13108 | 1.09054 | 21213 ft | 333 kts | 300° |
| 2026-04-22 10:53 | 41.14211 | 1.06404 | 20712 ft | 330 kts | 293° |
| 2026-04-22 10:53 | 41.15071 | 1.03596 | 20214 ft | 328 kts | 286° |
| 2026-04-22 10:54 | 41.15657 | 1.00699 | 19700 ft | 325 kts | 280° |
| 2026-04-22 10:54 | 41.16108 | 0.97764 | 19190 ft | 324 kts | 281° |
| 2026-04-22 10:54 | 41.16673 | 0.95004 | 18703 ft | 324 kts | 286° |
| 2026-04-22 10:54 | 41.17476 | 0.92202 | 18199 ft | 324 kts | 290° |
| 2026-04-22 10:55 | 41.18385 | 0.89491 | 17691 ft | 323 kts | 292° |
| 2026-04-22 10:55 | 41.19326 | 0.86784 | 17189 ft | 321 kts | 291° |
| 2026-04-22 10:55 | 41.20013 | 0.84016 | 16680 ft | 317 kts | 277° |
| 2026-04-22 10:55 | 41.19908 | 0.81166 | 16183 ft | 313 kts | 254° |
| 2026-04-22 10:56 | 41.18946 | 0.78597 | 15692 ft | 314 kts | 234° |
| 2026-04-22 10:56 | 41.17430 | 0.76502 | 15207 ft | 315 kts | 223° |
| 2026-04-22 10:56 | 41.15596 | 0.74944 | 14697 ft | 318 kts | 205° |
| 2026-04-22 10:56 | 41.13429 | 0.74383 | 14208 ft | 324 kts | 185° |
| 2026-04-22 10:57 | 41.11165 | 0.74497 | 13705 ft | 326 kts | 177° |
| 2026-04-22 10:57 | 41.08958 | 0.75160 | 13214 ft | 330 kts | 166° |
| 2026-04-22 10:57 | 41.08097 | 0.75554 | 13027 ft | 330 kts | 163° |